sensor_id;sensor_type;location;lat;lon;timestamp;temperature;humidity
16974;DHT22;8603;46.944;7.412;2023-02-01T00:02:17;0.50;99.90
16974;DHT22;8603;46.944;7.412;2023-02-01T00:04:42;0.60;99.90
16974;DHT22;8603;46.944;7.412;2023-02-01T00:07:08;0.60;99.90
16974;DHT22;8603;46.944;7.412;2023-02-01T00:09:34;0.70;99.90
16974;DHT22;8603;46.944;7.412;2023-02-01T00:12:00;0.70;99.90
16974;DHT22;8603;46.944;7.412;2023-02-01T00:14:27;0.80;99.90
16974;DHT22;8603;46.944;7.412;2023-02-01T00:16:53;0.70;99.90
16974;DHT22;8603;46.944;7.412;2023-02-01T00:19:19;0.70;99.90
16974;DHT22;8603;46.944;7.412;2023-02-01T00:21:44;0.70;99.90
16974;DHT22;8603;46.944;7.412;2023-02-01T00:24:11;0.70;99.90
16974;DHT22;8603;46.944;7.412;2023-02-01T00:26:39;0.60;99.90
16974;DHT22;8603;46.944;7.412;2023-02-01T00:29:09;0.60;99.90
16974;DHT22;8603;46.944;7.412;2023-02-01T00:31:35;0.60;99.90
16974;DHT22;8603;46.944;7.412;2023-02-01T00:34:01;0.50;99.90
16974;DHT22;8603;46.944;7.412;2023-02-01T00:36:27;0.50;99.90
16974;DHT22;8603;46.944;7.412;2023-02-01T00:38:53;0.40;99.90
16974;DHT22;8603;46.944;7.412;2023-02-01T00:41:21;0.30;99.90
16974;DHT22;8603;46.944;7.412;2023-02-01T00:43:48;0.20;99.90
16974;DHT22;8603;46.944;7.412;2023-02-01T00:46:15;0.10;99.90
16974;DHT22;8603;46.944;7.412;2023-02-01T00:48:42;0.00;99.90
16974;DHT22;8603;46.944;7.412;2023-02-01T00:51:10;-0.10;99.90
16974;DHT22;8603;46.944;7.412;2023-02-01T00:53:36;-0.20;99.90
16974;DHT22;8603;46.944;7.412;2023-02-01T00:56:03;-0.40;99.90
16974;DHT22;8603;46.944;7.412;2023-02-01T00:58:29;-0.50;99.90
16974;DHT22;8603;46.944;7.412;2023-02-01T01:03:40;-0.70;99.90
16974;DHT22;8603;46.944;7.412;2023-02-01T01:06:09;-0.70;99.90
16974;DHT22;8603;46.944;7.412;2023-02-01T01:08:36;-0.80;99.90
16974;DHT22;8603;46.944;7.412;2023-02-01T01:11:08;-0.80;99.90
16974;DHT22;8603;46.944;7.412;2023-02-01T01:13:34;-1.00;99.90
16974;DHT22;8603;46.944;7.412;2023-02-01T01:16:02;-1.00;99.90
16974;DHT22;8603;46.944;7.412;2023-02-01T01:18:28;-1.10;99.90
16974;DHT22;8603;46.944;7.412;2023-02-01T01:20:55;-1.10;99.90
16974;DHT22;8603;46.944;7.412;2023-02-01T01:23:21;-1.20;99.90
16974;DHT22;8603;46.944;7.412;2023-02-01T01:25:47;-1.20;99.90
16974;DHT22;8603;46.944;7.412;2023-02-01T01:28:12;-1.30;99.90
16974;DHT22;8603;46.944;7.412;2023-02-01T01:30:38;-1.30;99.90
16974;DHT22;8603;46.944;7.412;2023-02-01T01:33:03;-1.40;99.90
16974;DHT22;8603;46.944;7.412;2023-02-01T01:35:30;-1.30;99.90
16974;DHT22;8603;46.944;7.412;2023-02-01T01:37:56;-1.40;99.90
16974;DHT22;8603;46.944;7.412;2023-02-01T01:40:22;-1.40;99.90
16974;DHT22;8603;46.944;7.412;2023-02-01T01:42:48;-1.40;99.90
16974;DHT22;8603;46.944;7.412;2023-02-01T01:45:28;-1.50;99.90
16974;DHT22;8603;46.944;7.412;2023-02-01T01:47:59;-1.60;99.90
16974;DHT22;8603;46.944;7.412;2023-02-01T01:50:40;-1.60;99.90
16974;DHT22;8603;46.944;7.412;2023-02-01T01:53:07;-1.70;99.90
16974;DHT22;8603;46.944;7.412;2023-02-01T01:55:37;-1.80;99.90
16974;DHT22;8603;46.944;7.412;2023-02-01T01:58:06;-1.80;99.90
16974;DHT22;8603;46.944;7.412;2023-02-01T02:00:34;-2.00;99.90
16974;DHT22;8603;46.944;7.412;2023-02-01T02:03:10;-2.00;99.90
16974;DHT22;8603;46.944;7.412;2023-02-01T02:05:37;-2.00;99.90
16974;DHT22;8603;46.944;7.412;2023-02-01T02:08:03;-2.00;99.90
16974;DHT22;8603;46.944;7.412;2023-02-01T02:10:29;-2.00;99.90
16974;DHT22;8603;46.944;7.412;2023-02-01T02:13:15;-2.00;99.90
16974;DHT22;8603;46.944;7.412;2023-02-01T02:15:50;-2.10;99.90
16974;DHT22;8603;46.944;7.412;2023-02-01T02:24:43;-2.20;99.90
16974;DHT22;8603;46.944;7.412;2023-02-01T02:27:22;-2.30;99.90
16974;DHT22;8603;46.944;7.412;2023-02-01T02:36:28;-2.30;99.90
16974;DHT22;8603;46.944;7.412;2023-02-01T02:38:42;-2.40;99.90
16974;DHT22;8603;46.944;7.412;2023-02-01T02:44:35;-2.50;99.90
16974;DHT22;8603;46.944;7.412;2023-02-01T02:47:33;-2.50;99.90
16974;DHT22;8603;46.944;7.412;2023-02-01T02:50:10;-2.40;99.90
16974;DHT22;8603;46.944;7.412;2023-02-01T02:53:14;-2.40;99.90
16974;DHT22;8603;46.944;7.412;2023-02-01T02:55:59;-2.40;99.90
16974;DHT22;8603;46.944;7.412;2023-02-01T02:58:46;-2.30;99.90
16974;DHT22;8603;46.944;7.412;2023-02-01T03:01:30;-2.40;99.90
16974;DHT22;8603;46.944;7.412;2023-02-01T03:04:15;-2.40;99.90
16974;DHT22;8603;46.944;7.412;2023-02-01T03:06:43;-2.50;99.90
16974;DHT22;8603;46.944;7.412;2023-02-01T03:09:35;-2.50;99.90
16974;DHT22;8603;46.944;7.412;2023-02-01T03:12:04;-2.50;99.90
16974;DHT22;8603;46.944;7.412;2023-02-01T03:14:54;-2.50;99.90
16974;DHT22;8603;46.944;7.412;2023-02-01T03:17:30;-2.50;99.90
16974;DHT22;8603;46.944;7.412;2023-02-01T03:20:00;-2.50;99.90
16974;DHT22;8603;46.944;7.412;2023-02-01T03:22:28;-2.50;99.90
16974;DHT22;8603;46.944;7.412;2023-02-01T03:25:03;-2.50;99.90
16974;DHT22;8603;46.944;7.412;2023-02-01T03:27:37;-2.60;99.90
16974;DHT22;8603;46.944;7.412;2023-02-01T03:32:44;-2.60;99.90
16974;DHT22;8603;46.944;7.412;2023-02-01T03:35:30;-2.60;99.90
16974;DHT22;8603;46.944;7.412;2023-02-01T03:38:04;-2.50;99.90
16974;DHT22;8603;46.944;7.412;2023-02-01T03:46:53;-2.50;99.90
16974;DHT22;8603;46.944;7.412;2023-02-01T03:49:47;-2.30;99.90
16974;DHT22;8603;46.944;7.412;2023-02-01T03:52:20;-2.40;99.90
16974;DHT22;8603;46.944;7.412;2023-02-01T03:54:51;-2.40;99.90
16974;DHT22;8603;46.944;7.412;2023-02-01T03:57:23;-2.50;99.90
16974;DHT22;8603;46.944;7.412;2023-02-01T03:59:51;-2.60;99.90
16974;DHT22;8603;46.944;7.412;2023-02-01T04:02:17;-2.60;99.90
16974;DHT22;8603;46.944;7.412;2023-02-01T04:04:46;-2.60;99.90
16974;DHT22;8603;46.944;7.412;2023-02-01T04:07:11;-2.60;99.90
16974;DHT22;8603;46.944;7.412;2023-02-01T04:09:42;-2.50;99.90
16974;DHT22;8603;46.944;7.412;2023-02-01T04:12:12;-2.60;99.90
16974;DHT22;8603;46.944;7.412;2023-02-01T04:14:41;-2.60;99.90
16974;DHT22;8603;46.944;7.412;2023-02-01T04:17:18;-2.70;99.90
16974;DHT22;8603;46.944;7.412;2023-02-01T04:20:07;-2.70;99.90
16974;DHT22;8603;46.944;7.412;2023-02-01T04:22:34;-2.60;99.90
16974;DHT22;8603;46.944;7.412;2023-02-01T04:25:00;-2.60;99.90
16974;DHT22;8603;46.944;7.412;2023-02-01T04:27:26;-2.60;99.90
16974;DHT22;8603;46.944;7.412;2023-02-01T04:29:52;-2.50;99.90
16974;DHT22;8603;46.944;7.412;2023-02-01T04:32:19;-2.60;99.90
16974;DHT22;8603;46.944;7.412;2023-02-01T04:34:47;-2.60;99.90
16974;DHT22;8603;46.944;7.412;2023-02-01T04:37:13;-2.70;99.90
16974;DHT22;8603;46.944;7.412;2023-02-01T04:39:39;-2.70;99.90
16974;DHT22;8603;46.944;7.412;2023-02-01T04:42:05;-2.70;99.90
16974;DHT22;8603;46.944;7.412;2023-02-01T04:44:31;-2.60;99.90
16974;DHT22;8603;46.944;7.412;2023-02-01T04:47:09;-2.60;99.90
16974;DHT22;8603;46.944;7.412;2023-02-01T04:49:46;-2.60;99.90
16974;DHT22;8603;46.944;7.412;2023-02-01T04:52:16;-2.70;99.90
16974;DHT22;8603;46.944;7.412;2023-02-01T04:54:50;-2.70;99.90
16974;DHT22;8603;46.944;7.412;2023-02-01T04:57:23;-2.60;99.90
16974;DHT22;8603;46.944;7.412;2023-02-01T04:59:48;-2.60;99.90
16974;DHT22;8603;46.944;7.412;2023-02-01T05:02:17;-2.70;99.90
16974;DHT22;8603;46.944;7.412;2023-02-01T05:07:46;-2.70;99.90
16974;DHT22;8603;46.944;7.412;2023-02-01T05:10:16;-2.80;99.90
16974;DHT22;8603;46.944;7.412;2023-02-01T05:12:45;-2.80;99.90
16974;DHT22;8603;46.944;7.412;2023-02-01T05:15:47;-2.70;99.90
16974;DHT22;8603;46.944;7.412;2023-02-01T05:18:23;-2.70;99.90
16974;DHT22;8603;46.944;7.412;2023-02-01T05:20:54;-2.70;99.90
16974;DHT22;8603;46.944;7.412;2023-02-01T05:23:23;-2.70;99.90
16974;DHT22;8603;46.944;7.412;2023-02-01T05:26:08;-2.70;99.90
16974;DHT22;8603;46.944;7.412;2023-02-01T05:28:34;-2.70;99.90
16974;DHT22;8603;46.944;7.412;2023-02-01T05:31:09;-2.80;99.90
16974;DHT22;8603;46.944;7.412;2023-02-01T05:33:48;-2.80;99.90
16974;DHT22;8603;46.944;7.412;2023-02-01T05:36:20;-2.90;99.90
16974;DHT22;8603;46.944;7.412;2023-02-01T05:41:53;-2.90;99.90
16974;DHT22;8603;46.944;7.412;2023-02-01T05:47:52;-2.90;99.90
16974;DHT22;8603;46.944;7.412;2023-02-01T05:50:34;-2.80;99.90
16974;DHT22;8603;46.944;7.412;2023-02-01T05:53:08;-2.70;99.90
16974;DHT22;8603;46.944;7.412;2023-02-01T05:55:58;-2.60;99.90
16974;DHT22;8603;46.944;7.412;2023-02-01T06:05:28;-2.30;99.90
16974;DHT22;8603;46.944;7.412;2023-02-01T06:08:06;-2.20;99.90
16974;DHT22;8603;46.944;7.412;2023-02-01T06:10:49;-2.00;99.90
16974;DHT22;8603;46.944;7.412;2023-02-01T06:16:59;-1.80;99.90
16974;DHT22;8603;46.944;7.412;2023-02-01T06:19:37;-1.70;99.90
16974;DHT22;8603;46.944;7.412;2023-02-01T06:22:12;-1.60;99.90
16974;DHT22;8603;46.944;7.412;2023-02-01T06:25:21;-1.60;99.90
16974;DHT22;8603;46.944;7.412;2023-02-01T06:28:06;-1.50;99.90
16974;DHT22;8603;46.944;7.412;2023-02-01T06:31:02;-1.30;99.90
16974;DHT22;8603;46.944;7.412;2023-02-01T06:33:37;-1.40;99.90
16974;DHT22;8603;46.944;7.412;2023-02-01T06:36:09;-1.50;99.90
16974;DHT22;8603;46.944;7.412;2023-02-01T06:42:18;-1.30;99.90
16974;DHT22;8603;46.944;7.412;2023-02-01T06:45:20;-1.30;99.90
16974;DHT22;8603;46.944;7.412;2023-02-01T06:48:02;-1.20;99.90
16974;DHT22;8603;46.944;7.412;2023-02-01T06:50:28;-1.20;99.90
16974;DHT22;8603;46.944;7.412;2023-02-01T06:52:57;-1.20;99.90
16974;DHT22;8603;46.944;7.412;2023-02-01T06:55:54;-1.20;99.90
16974;DHT22;8603;46.944;7.412;2023-02-01T07:01:58;-1.20;99.90
16974;DHT22;8603;46.944;7.412;2023-02-01T07:04:58;-1.40;99.90
16974;DHT22;8603;46.944;7.412;2023-02-01T07:08:09;-1.40;99.90
16974;DHT22;8603;46.944;7.412;2023-02-01T07:18:08;-1.50;99.90
16974;DHT22;8603;46.944;7.412;2023-02-01T07:20:49;-1.50;99.90
16974;DHT22;8603;46.944;7.412;2023-02-01T07:24:24;-1.50;99.90
16974;DHT22;8603;46.944;7.412;2023-02-01T07:30:29;-1.40;99.90
16974;DHT22;8603;46.944;7.412;2023-02-01T07:33:30;-1.30;99.90
16974;DHT22;8603;46.944;7.412;2023-02-01T07:36:09;-1.30;99.90
16974;DHT22;8603;46.944;7.412;2023-02-01T07:38:47;-1.20;99.90
16974;DHT22;8603;46.944;7.412;2023-02-01T07:42:03;-1.00;99.90
16974;DHT22;8603;46.944;7.412;2023-02-01T07:45:05;-0.80;99.90
16974;DHT22;8603;46.944;7.412;2023-02-01T07:51:23;-0.50;99.90
16974;DHT22;8603;46.944;7.412;2023-02-01T07:54:09;-0.30;99.90
16974;DHT22;8603;46.944;7.412;2023-02-01T07:57:21;-0.30;99.90
16974;DHT22;8603;46.944;7.412;2023-02-01T08:03:40;-0.10;99.90
16974;DHT22;8603;46.944;7.412;2023-02-01T08:08:55;0.00;99.90
16974;DHT22;8603;46.944;7.412;2023-02-01T08:11:26;0.10;99.90
16974;DHT22;8603;46.944;7.412;2023-02-01T08:14:19;0.10;99.90
16974;DHT22;8603;46.944;7.412;2023-02-01T08:19:58;0.20;99.90
16974;DHT22;8603;46.944;7.412;2023-02-01T08:22:31;0.30;99.90
16974;DHT22;8603;46.944;7.412;2023-02-01T08:28:42;0.60;99.90
16974;DHT22;8603;46.944;7.412;2023-02-01T08:34:08;1.40;99.90
16974;DHT22;8603;46.944;7.412;2023-02-01T08:36:35;1.80;99.90
16974;DHT22;8603;46.944;7.412;2023-02-01T08:39:01;2.40;99.90
16974;DHT22;8603;46.944;7.412;2023-02-01T08:41:31;2.80;99.90
16974;DHT22;8603;46.944;7.412;2023-02-01T08:43:57;3.00;99.90
16974;DHT22;8603;46.944;7.412;2023-02-01T08:46:25;3.10;99.90
16974;DHT22;8603;46.944;7.412;2023-02-01T08:48:51;3.10;99.90
16974;DHT22;8603;46.944;7.412;2023-02-01T08:51:19;3.50;99.90
16974;DHT22;8603;46.944;7.412;2023-02-01T08:53:48;4.60;99.90
16974;DHT22;8603;46.944;7.412;2023-02-01T08:56:16;5.40;99.90
16974;DHT22;8603;46.944;7.412;2023-02-01T08:58:42;5.50;99.90
16974;DHT22;8603;46.944;7.412;2023-02-01T09:01:10;5.60;99.90
16974;DHT22;8603;46.944;7.412;2023-02-01T09:03:37;5.60;99.90
16974;DHT22;8603;46.944;7.412;2023-02-01T09:06:04;5.80;99.90
16974;DHT22;8603;46.944;7.412;2023-02-01T09:08:31;6.40;99.90
16974;DHT22;8603;46.944;7.412;2023-02-01T09:11:06;7.00;99.90
16974;DHT22;8603;46.944;7.412;2023-02-01T09:13:32;7.40;99.90
16974;DHT22;8603;46.944;7.412;2023-02-01T09:15:59;8.00;99.90
16974;DHT22;8603;46.944;7.412;2023-02-01T09:18:25;8.30;99.90
16974;DHT22;8603;46.944;7.412;2023-02-01T09:20:51;8.20;99.90
16974;DHT22;8603;46.944;7.412;2023-02-01T09:23:17;7.80;99.90
16974;DHT22;8603;46.944;7.412;2023-02-01T09:25:43;7.60;99.90
16974;DHT22;8603;46.944;7.412;2023-02-01T09:28:11;7.00;99.90
16974;DHT22;8603;46.944;7.412;2023-02-01T09:30:37;6.70;99.90
16974;DHT22;8603;46.944;7.412;2023-02-01T09:33:06;6.30;99.90
16974;DHT22;8603;46.944;7.412;2023-02-01T09:35:32;6.10;99.90
16974;DHT22;8603;46.944;7.412;2023-02-01T09:37:58;5.90;99.90
16974;DHT22;8603;46.944;7.412;2023-02-01T09:40:29;5.80;99.90
16974;DHT22;8603;46.944;7.412;2023-02-01T09:46:20;5.40;99.90
16974;DHT22;8603;46.944;7.412;2023-02-01T09:48:53;5.20;99.90
16974;DHT22;8603;46.944;7.412;2023-02-01T09:51:24;4.90;99.90
16974;DHT22;8603;46.944;7.412;2023-02-01T09:56:56;4.70;99.90
16974;DHT22;8603;46.944;7.412;2023-02-01T10:01:56;5.00;99.90
16974;DHT22;8603;46.944;7.412;2023-02-01T10:04:24;5.20;99.90
16974;DHT22;8603;46.944;7.412;2023-02-01T10:06:59;5.30;99.90
16974;DHT22;8603;46.944;7.412;2023-02-01T10:09:38;5.40;99.90
16974;DHT22;8603;46.944;7.412;2023-02-01T10:23:16;4.80;99.90
16974;DHT22;8603;46.944;7.412;2023-02-01T10:25:54;4.80;99.90
16974;DHT22;8603;46.944;7.412;2023-02-01T10:28:21;5.00;99.90
16974;DHT22;8603;46.944;7.412;2023-02-01T10:30:48;5.10;99.90
16974;DHT22;8603;46.944;7.412;2023-02-01T10:33:25;5.30;99.90
16974;DHT22;8603;46.944;7.412;2023-02-01T10:35:58;5.50;99.90
16974;DHT22;8603;46.944;7.412;2023-02-01T10:38:29;5.80;99.90
16974;DHT22;8603;46.944;7.412;2023-02-01T10:40:58;6.00;99.90
16974;DHT22;8603;46.944;7.412;2023-02-01T10:43:25;6.20;99.90
16974;DHT22;8603;46.944;7.412;2023-02-01T10:45:51;6.60;99.90
16974;DHT22;8603;46.944;7.412;2023-02-01T10:48:17;6.80;99.90
16974;DHT22;8603;46.944;7.412;2023-02-01T10:50:56;7.00;99.90
16974;DHT22;8603;46.944;7.412;2023-02-01T10:53:50;7.20;99.90
16974;DHT22;8603;46.944;7.412;2023-02-01T10:56:24;7.50;99.90
16974;DHT22;8603;46.944;7.412;2023-02-01T10:58:50;7.60;99.90
16974;DHT22;8603;46.944;7.412;2023-02-01T11:01:23;7.80;99.90
16974;DHT22;8603;46.944;7.412;2023-02-01T11:03:57;7.80;99.90
16974;DHT22;8603;46.944;7.412;2023-02-01T11:08:56;7.30;99.90
16974;DHT22;8603;46.944;7.412;2023-02-01T11:11:23;7.10;99.90
16974;DHT22;8603;46.944;7.412;2023-02-01T11:14:16;6.90;99.90
16974;DHT22;8603;46.944;7.412;2023-02-01T11:16:48;6.90;99.90
16974;DHT22;8603;46.944;7.412;2023-02-01T11:19:16;6.90;99.90
16974;DHT22;8603;46.944;7.412;2023-02-01T11:21:43;7.00;99.90
16974;DHT22;8603;46.944;7.412;2023-02-01T11:26:45;7.20;99.90
16974;DHT22;8603;46.944;7.412;2023-02-01T11:29:14;7.40;99.90
16974;DHT22;8603;46.944;7.412;2023-02-01T11:31:44;7.60;99.90
16974;DHT22;8603;46.944;7.412;2023-02-01T11:34:41;7.60;99.90
16974;DHT22;8603;46.944;7.412;2023-02-01T11:37:20;7.60;99.90
16974;DHT22;8603;46.944;7.412;2023-02-01T11:39:55;7.70;99.90
16974;DHT22;8603;46.944;7.412;2023-02-01T11:42:21;7.80;99.90
16974;DHT22;8603;46.944;7.412;2023-02-01T11:44:47;7.70;99.90
16974;DHT22;8603;46.944;7.412;2023-02-01T11:47:31;7.70;99.90
16974;DHT22;8603;46.944;7.412;2023-02-01T11:56:12;7.40;99.90
16974;DHT22;8603;46.944;7.412;2023-02-01T12:08:21;7.20;99.90
16974;DHT22;8603;46.944;7.412;2023-02-01T12:11:01;7.10;99.90
16974;DHT22;8603;46.944;7.412;2023-02-01T12:39:23;6.60;99.90
16974;DHT22;8603;46.944;7.412;2023-02-01T12:42:16;6.70;99.90
16974;DHT22;8603;46.944;7.412;2023-02-01T12:44:45;7.00;99.90
16974;DHT22;8603;46.944;7.412;2023-02-01T12:47:30;7.30;99.90
16974;DHT22;8603;46.944;7.412;2023-02-01T12:50:03;7.60;99.90
16974;DHT22;8603;46.944;7.412;2023-02-01T12:52:42;7.90;99.90
16974;DHT22;8603;46.944;7.412;2023-02-01T12:55:15;7.90;99.90
16974;DHT22;8603;46.944;7.412;2023-02-01T12:57:45;7.80;99.90
16974;DHT22;8603;46.944;7.412;2023-02-01T13:05:28;7.40;99.90
16974;DHT22;8603;46.944;7.412;2023-02-01T13:07:57;7.30;99.90
16974;DHT22;8603;46.944;7.412;2023-02-01T13:13:29;7.20;99.90
16974;DHT22;8603;46.944;7.412;2023-02-01T13:16:04;7.30;99.90
16974;DHT22;8603;46.944;7.412;2023-02-01T13:18:38;7.50;99.90
16974;DHT22;8603;46.944;7.412;2023-02-01T13:21:16;7.60;99.90
16974;DHT22;8603;46.944;7.412;2023-02-01T13:23:46;7.80;99.90
16974;DHT22;8603;46.944;7.412;2023-02-01T13:26:12;7.80;99.90
16974;DHT22;8603;46.944;7.412;2023-02-01T13:28:51;7.90;99.90
16974;DHT22;8603;46.944;7.412;2023-02-01T13:34:29;8.00;99.90
16974;DHT22;8603;46.944;7.412;2023-02-01T13:39:41;7.70;99.90
16974;DHT22;8603;46.944;7.412;2023-02-01T13:42:29;7.50;99.90
16974;DHT22;8603;46.944;7.412;2023-02-01T13:45:02;7.30;99.90
16974;DHT22;8603;46.944;7.412;2023-02-01T13:47:32;7.10;99.90
16974;DHT22;8603;46.944;7.412;2023-02-01T13:50:49;7.00;99.90
16974;DHT22;8603;46.944;7.412;2023-02-01T13:52:55;6.80;99.90
16974;DHT22;8603;46.944;7.412;2023-02-01T13:57:50;6.70;99.90
16974;DHT22;8603;46.944;7.412;2023-02-01T14:00:36;6.70;99.90
16974;DHT22;8603;46.944;7.412;2023-02-01T14:03:09;6.60;99.90
16974;DHT22;8603;46.944;7.412;2023-02-01T14:08:12;6.60;99.90
16974;DHT22;8603;46.944;7.412;2023-02-01T14:13:36;6.60;99.90
16974;DHT22;8603;46.944;7.412;2023-02-01T14:21:32;6.60;99.90
16974;DHT22;8603;46.944;7.412;2023-02-01T14:24:04;6.60;99.90
16974;DHT22;8603;46.944;7.412;2023-02-01T14:26:44;6.50;99.90
16974;DHT22;8603;46.944;7.412;2023-02-01T14:31:52;6.50;99.90
16974;DHT22;8603;46.944;7.412;2023-02-01T14:34:37;6.40;99.90
16974;DHT22;8603;46.944;7.412;2023-02-01T14:37:11;6.50;99.90
16974;DHT22;8603;46.944;7.412;2023-02-01T14:55:51;7.10;99.90
16974;DHT22;8603;46.944;7.412;2023-02-01T15:05:58;7.10;99.90
16974;DHT22;8603;46.944;7.412;2023-02-01T15:08:32;7.10;99.90
16974;DHT22;8603;46.944;7.412;2023-02-01T15:11:01;7.10;99.90
16974;DHT22;8603;46.944;7.412;2023-02-01T15:13:28;7.10;99.90
16974;DHT22;8603;46.944;7.412;2023-02-01T15:16:02;7.00;99.90
16974;DHT22;8603;46.944;7.412;2023-02-01T15:18:28;7.00;99.90
16974;DHT22;8603;46.944;7.412;2023-02-01T15:20:58;6.90;99.90
16974;DHT22;8603;46.944;7.412;2023-02-01T15:23:25;6.80;99.90
16974;DHT22;8603;46.944;7.412;2023-02-01T15:25:51;6.80;99.90
16974;DHT22;8603;46.944;7.412;2023-02-01T15:28:17;6.70;99.90
16974;DHT22;8603;46.944;7.412;2023-02-01T15:30:58;6.70;99.90
16974;DHT22;8603;46.944;7.412;2023-02-01T15:33:25;6.70;99.90
16974;DHT22;8603;46.944;7.412;2023-02-01T15:35:53;6.70;99.90
16974;DHT22;8603;46.944;7.412;2023-02-01T15:41:07;6.60;99.90
16974;DHT22;8603;46.944;7.412;2023-02-01T15:46:40;6.50;99.90
16974;DHT22;8603;46.944;7.412;2023-02-01T15:49:25;6.40;99.90
16974;DHT22;8603;46.944;7.412;2023-02-01T15:51:52;6.30;99.90
16974;DHT22;8603;46.944;7.412;2023-02-01T15:54:31;6.10;99.90
16974;DHT22;8603;46.944;7.412;2023-02-01T15:56:59;5.90;99.90
16974;DHT22;8603;46.944;7.412;2023-02-01T15:59:46;5.70;99.90
16974;DHT22;8603;46.944;7.412;2023-02-01T16:02:42;5.70;99.90
16974;DHT22;8603;46.944;7.412;2023-02-01T16:05:35;5.60;99.90
16974;DHT22;8603;46.944;7.412;2023-02-01T16:08:10;5.60;99.90
16974;DHT22;8603;46.944;7.412;2023-02-01T16:10:44;5.60;99.90
16974;DHT22;8603;46.944;7.412;2023-02-01T16:13:12;5.50;99.90
16974;DHT22;8603;46.944;7.412;2023-02-01T16:15:38;5.50;99.90
16974;DHT22;8603;46.944;7.412;2023-02-01T16:18:05;5.40;99.90
16974;DHT22;8603;46.944;7.412;2023-02-01T16:20:41;5.40;99.90
16974;DHT22;8603;46.944;7.412;2023-02-01T16:23:09;5.30;99.90
16974;DHT22;8603;46.944;7.412;2023-02-01T16:25:36;5.40;99.90
16974;DHT22;8603;46.944;7.412;2023-02-01T16:28:03;5.40;99.90
16974;DHT22;8603;46.944;7.412;2023-02-01T16:30:30;5.30;99.90
16974;DHT22;8603;46.944;7.412;2023-02-01T16:32:58;5.30;99.90
16974;DHT22;8603;46.944;7.412;2023-02-01T16:35:30;5.30;99.90
16974;DHT22;8603;46.944;7.412;2023-02-01T16:38:01;5.30;99.90
16974;DHT22;8603;46.944;7.412;2023-02-01T16:40:27;5.30;99.90
16974;DHT22;8603;46.944;7.412;2023-02-01T16:42:53;5.30;99.90
16974;DHT22;8603;46.944;7.412;2023-02-01T16:45:22;5.30;99.90
16974;DHT22;8603;46.944;7.412;2023-02-01T16:47:50;5.20;99.90
16974;DHT22;8603;46.944;7.412;2023-02-01T16:50:22;5.10;99.90
16974;DHT22;8603;46.944;7.412;2023-02-01T16:52:48;5.10;99.90
16974;DHT22;8603;46.944;7.412;2023-02-01T16:55:18;5.10;99.90
16974;DHT22;8603;46.944;7.412;2023-02-01T16:57:45;5.10;99.90
16974;DHT22;8603;46.944;7.412;2023-02-01T17:00:11;5.00;99.90
16974;DHT22;8603;46.944;7.412;2023-02-01T17:02:56;5.00;99.90
16974;DHT22;8603;46.944;7.412;2023-02-01T17:05:22;5.10;99.90
16974;DHT22;8603;46.944;7.412;2023-02-01T17:07:50;5.00;99.90
16974;DHT22;8603;46.944;7.412;2023-02-01T17:10:25;5.10;99.90
16974;DHT22;8603;46.944;7.412;2023-02-01T17:12:52;5.00;99.90
16974;DHT22;8603;46.944;7.412;2023-02-01T17:15:18;5.00;99.90
16974;DHT22;8603;46.944;7.412;2023-02-01T17:17:43;5.00;99.90
16974;DHT22;8603;46.944;7.412;2023-02-01T17:20:23;4.90;99.90
16974;DHT22;8603;46.944;7.412;2023-02-01T17:22:55;5.00;99.90
16974;DHT22;8603;46.944;7.412;2023-02-01T17:25:21;4.90;99.90
16974;DHT22;8603;46.944;7.412;2023-02-01T17:27:50;4.90;99.90
16974;DHT22;8603;46.944;7.412;2023-02-01T17:30:16;4.90;99.90
16974;DHT22;8603;46.944;7.412;2023-02-01T17:32:45;4.90;99.90
16974;DHT22;8603;46.944;7.412;2023-02-01T17:35:18;4.90;99.90
16974;DHT22;8603;46.944;7.412;2023-02-01T17:37:48;4.80;99.90
16974;DHT22;8603;46.944;7.412;2023-02-01T17:40:14;4.80;99.90
16974;DHT22;8603;46.944;7.412;2023-02-01T17:43:05;4.80;99.90
16974;DHT22;8603;46.944;7.412;2023-02-01T17:46:00;4.80;99.90
16974;DHT22;8603;46.944;7.412;2023-02-01T17:48:40;4.80;99.90
16974;DHT22;8603;46.944;7.412;2023-02-01T17:51:17;4.80;99.90
16974;DHT22;8603;46.944;7.412;2023-02-01T17:53:46;4.80;99.90
16974;DHT22;8603;46.944;7.412;2023-02-01T17:56:20;4.80;99.90
16974;DHT22;8603;46.944;7.412;2023-02-01T17:58:46;4.90;99.90
16974;DHT22;8603;46.944;7.412;2023-02-01T18:01:19;4.90;99.90
16974;DHT22;8603;46.944;7.412;2023-02-01T18:03:46;4.90;99.90
16974;DHT22;8603;46.944;7.412;2023-02-01T18:06:14;4.90;99.90
16974;DHT22;8603;46.944;7.412;2023-02-01T18:08:41;4.80;99.90
16974;DHT22;8603;46.944;7.412;2023-02-01T18:11:21;4.80;99.90
16974;DHT22;8603;46.944;7.412;2023-02-01T18:13:50;4.90;99.90
16974;DHT22;8603;46.944;7.412;2023-02-01T18:18:46;4.80;99.90
16974;DHT22;8603;46.944;7.412;2023-02-01T18:21:14;4.80;99.90
16974;DHT22;8603;46.944;7.412;2023-02-01T18:23:40;4.80;99.90
16974;DHT22;8603;46.944;7.412;2023-02-01T18:26:10;4.90;99.90
16974;DHT22;8603;46.944;7.412;2023-02-01T18:28:37;4.80;99.90
16974;DHT22;8603;46.944;7.412;2023-02-01T18:31:04;4.80;99.90
16974;DHT22;8603;46.944;7.412;2023-02-01T18:33:30;4.80;99.90
16974;DHT22;8603;46.944;7.412;2023-02-01T18:36:01;4.80;99.90
16974;DHT22;8603;46.944;7.412;2023-02-01T18:38:27;4.80;99.90
16974;DHT22;8603;46.944;7.412;2023-02-01T18:40:54;4.90;99.90
16974;DHT22;8603;46.944;7.412;2023-02-01T18:43:26;4.90;99.90
16974;DHT22;8603;46.944;7.412;2023-02-01T18:46:03;4.70;99.90
16974;DHT22;8603;46.944;7.412;2023-02-01T18:48:29;4.70;99.90
16974;DHT22;8603;46.944;7.412;2023-02-01T18:50:55;4.80;99.90
16974;DHT22;8603;46.944;7.412;2023-02-01T18:53:25;4.70;99.90
16974;DHT22;8603;46.944;7.412;2023-02-01T18:55:55;4.70;99.90
16974;DHT22;8603;46.944;7.412;2023-02-01T18:58:21;4.70;99.90
16974;DHT22;8603;46.944;7.412;2023-02-01T19:00:51;4.60;99.90
16974;DHT22;8603;46.944;7.412;2023-02-01T19:03:18;4.60;99.90
16974;DHT22;8603;46.944;7.412;2023-02-01T19:05:51;4.60;99.90
16974;DHT22;8603;46.944;7.412;2023-02-01T19:08:20;4.60;99.90
16974;DHT22;8603;46.944;7.412;2023-02-01T19:10:46;4.70;99.90
16974;DHT22;8603;46.944;7.412;2023-02-01T19:13:19;4.50;99.90
16974;DHT22;8603;46.944;7.412;2023-02-01T19:15:49;4.60;99.90
16974;DHT22;8603;46.944;7.412;2023-02-01T19:18:15;4.50;99.90
16974;DHT22;8603;46.944;7.412;2023-02-01T19:20:45;4.50;99.90
16974;DHT22;8603;46.944;7.412;2023-02-01T19:23:12;4.40;99.90
16974;DHT22;8603;46.944;7.412;2023-02-01T19:25:42;4.60;99.90
16974;DHT22;8603;46.944;7.412;2023-02-01T19:28:09;4.60;99.90
16974;DHT22;8603;46.944;7.412;2023-02-01T19:30:34;4.70;99.90
16974;DHT22;8603;46.944;7.412;2023-02-01T19:33:00;4.80;99.90
16974;DHT22;8603;46.944;7.412;2023-02-01T19:35:28;4.70;99.90
16974;DHT22;8603;46.944;7.412;2023-02-01T19:37:54;4.70;99.90
16974;DHT22;8603;46.944;7.412;2023-02-01T19:40:21;4.70;99.90
16974;DHT22;8603;46.944;7.412;2023-02-01T19:42:50;4.70;99.90
16974;DHT22;8603;46.944;7.412;2023-02-01T19:45:16;4.60;99.90
16974;DHT22;8603;46.944;7.412;2023-02-01T19:47:52;4.60;99.90
16974;DHT22;8603;46.944;7.412;2023-02-01T19:50:21;4.50;99.90
16974;DHT22;8603;46.944;7.412;2023-02-01T19:52:48;4.50;99.90
16974;DHT22;8603;46.944;7.412;2023-02-01T19:55:16;4.50;99.90
16974;DHT22;8603;46.944;7.412;2023-02-01T19:57:42;4.50;99.90
16974;DHT22;8603;46.944;7.412;2023-02-01T20:00:14;4.40;99.90
16974;DHT22;8603;46.944;7.412;2023-02-01T20:02:45;4.40;99.90
16974;DHT22;8603;46.944;7.412;2023-02-01T20:05:14;4.50;99.90
16974;DHT22;8603;46.944;7.412;2023-02-01T20:07:40;4.40;99.90